sensor_id;sensor_type;location;lat;lon;timestamp;P1;durP1;ratioP1;P2;durP2;ratioP2
2388;SDS011;1205;47.984;7.668;2023-02-28T00:00:08;2.50;;;1.80;;
2388;SDS011;1205;47.984;7.668;2023-02-28T00:02:36;1.43;;;1.33;;
2388;SDS011;1205;47.984;7.668;2023-02-28T00:05:02;1.70;;;1.60;;
2388;SDS011;1205;47.984;7.668;2023-02-28T00:07:29;2.60;;;2.00;;
2388;SDS011;1205;47.984;7.668;2023-02-28T00:09:55;1.80;;;1.50;;
2388;SDS011;1205;47.984;7.668;2023-02-28T00:12:21;1.60;;;1.57;;
2388;SDS011;1205;47.984;7.668;2023-02-28T00:14:47;1.70;;;1.40;;
2388;SDS011;1205;47.984;7.668;2023-02-28T00:17:13;4.60;;;3.63;;
2388;SDS011;1205;47.984;7.668;2023-02-28T00:19:39;5.07;;;3.53;;
2388;SDS011;1205;47.984;7.668;2023-02-28T00:22:04;2.20;;;2.00;;
2388;SDS011;1205;47.984;7.668;2023-02-28T00:24:30;1.97;;;1.87;;
2388;SDS011;1205;47.984;7.668;2023-02-28T00:26:56;3.40;;;1.63;;
2388;SDS011;1205;47.984;7.668;2023-02-28T00:29:21;1.80;;;1.80;;
2388;SDS011;1205;47.984;7.668;2023-02-28T00:31:47;2.23;;;2.10;;
2388;SDS011;1205;47.984;7.668;2023-02-28T00:34:12;6.70;;;1.87;;
2388;SDS011;1205;47.984;7.668;2023-02-28T00:36:38;1.40;;;1.40;;
2388;SDS011;1205;47.984;7.668;2023-02-28T00:39:03;2.40;;;2.20;;
2388;SDS011;1205;47.984;7.668;2023-02-28T00:41:29;2.73;;;2.00;;
2388;SDS011;1205;47.984;7.668;2023-02-28T00:43:55;2.20;;;1.50;;
2388;SDS011;1205;47.984;7.668;2023-02-28T00:46:20;3.70;;;1.77;;
2388;SDS011;1205;47.984;7.668;2023-02-28T00:48:46;1.67;;;1.50;;
2388;SDS011;1205;47.984;7.668;2023-02-28T00:51:11;1.50;;;1.50;;
2388;SDS011;1205;47.984;7.668;2023-02-28T00:53:37;3.00;;;1.97;;
2388;SDS011;1205;47.984;7.668;2023-02-28T00:56:03;1.90;;;1.50;;
2388;SDS011;1205;47.984;7.668;2023-02-28T00:58:28;1.77;;;1.57;;
2388;SDS011;1205;47.984;7.668;2023-02-28T01:00:54;1.87;;;1.57;;
2388;SDS011;1205;47.984;7.668;2023-02-28T01:03:20;3.10;;;2.10;;
2388;SDS011;1205;47.984;7.668;2023-02-28T01:05:47;2.87;;;1.80;;
2388;SDS011;1205;47.984;7.668;2023-02-28T01:08:13;1.63;;;1.53;;
2388;SDS011;1205;47.984;7.668;2023-02-28T01:10:39;2.07;;;1.97;;
2388;SDS011;1205;47.984;7.668;2023-02-28T01:13:05;1.80;;;1.70;;
2388;SDS011;1205;47.984;7.668;2023-02-28T01:15:31;5.27;;;1.97;;
2388;SDS011;1205;47.984;7.668;2023-02-28T01:17:57;2.93;;;1.97;;
2388;SDS011;1205;47.984;7.668;2023-02-28T01:20:23;2.37;;;2.10;;
2388;SDS011;1205;47.984;7.668;2023-02-28T01:22:49;1.77;;;1.67;;
2388;SDS011;1205;47.984;7.668;2023-02-28T01:25:14;1.60;;;1.60;;
2388;SDS011;1205;47.984;7.668;2023-02-28T01:27:40;1.83;;;1.73;;
2388;SDS011;1205;47.984;7.668;2023-02-28T01:30:06;4.97;;;1.70;;
2388;SDS011;1205;47.984;7.668;2023-02-28T01:32:35;2.17;;;2.07;;
2388;SDS011;1205;47.984;7.668;2023-02-28T01:35:01;2.10;;;1.90;;
2388;SDS011;1205;47.984;7.668;2023-02-28T01:37:27;2.20;;;2.00;;
2388;SDS011;1205;47.984;7.668;2023-02-28T01:39:53;3.20;;;1.90;;
2388;SDS011;1205;47.984;7.668;2023-02-28T01:42:18;1.90;;;1.80;;
2388;SDS011;1205;47.984;7.668;2023-02-28T01:47:38;2.00;;;1.80;;
2388;SDS011;1205;47.984;7.668;2023-02-28T01:50:07;1.93;;;1.77;;
2388;SDS011;1205;47.984;7.668;2023-02-28T01:52:37;1.40;;;1.40;;
2388;SDS011;1205;47.984;7.668;2023-02-28T01:55:04;3.33;;;1.60;;
2388;SDS011;1205;47.984;7.668;2023-02-28T01:57:35;2.03;;;1.93;;
2388;SDS011;1205;47.984;7.668;2023-02-28T02:00:05;1.80;;;1.70;;
2388;SDS011;1205;47.984;7.668;2023-02-28T02:02:38;2.27;;;1.50;;
2388;SDS011;1205;47.984;7.668;2023-02-28T02:05:06;2.97;;;2.10;;
2388;SDS011;1205;47.984;7.668;2023-02-28T02:07:37;1.70;;;1.60;;
2388;SDS011;1205;47.984;7.668;2023-02-28T02:10:09;2.00;;;1.77;;
2388;SDS011;1205;47.984;7.668;2023-02-28T02:17:39;1.70;;;1.60;;
2388;SDS011;1205;47.984;7.668;2023-02-28T02:28:57;2.27;;;1.80;;
2388;SDS011;1205;47.984;7.668;2023-02-28T02:37:11;2.00;;;1.90;;
2388;SDS011;1205;47.984;7.668;2023-02-28T02:42:39;2.10;;;1.70;;
2388;SDS011;1205;47.984;7.668;2023-02-28T02:45:17;2.30;;;2.10;;
2388;SDS011;1205;47.984;7.668;2023-02-28T02:47:44;1.90;;;1.80;;
2388;SDS011;1205;47.984;7.668;2023-02-28T02:50:15;1.60;;;1.50;;
2388;SDS011;1205;47.984;7.668;2023-02-28T02:52:48;3.00;;;2.13;;
2388;SDS011;1205;47.984;7.668;2023-02-28T02:55:17;2.93;;;2.07;;
2388;SDS011;1205;47.984;7.668;2023-02-28T02:57:52;2.00;;;1.90;;
2388;SDS011;1205;47.984;7.668;2023-02-28T03:00:26;3.70;;;1.90;;
2388;SDS011;1205;47.984;7.668;2023-02-28T03:02:58;7.30;;;2.17;;
2388;SDS011;1205;47.984;7.668;2023-02-28T03:05:26;3.80;;;1.97;;
2388;SDS011;1205;47.984;7.668;2023-02-28T03:07:59;1.87;;;1.70;;
2388;SDS011;1205;47.984;7.668;2023-02-28T03:18:40;1.80;;;1.63;;
2388;SDS011;1205;47.984;7.668;2023-02-28T03:21:36;2.13;;;2.03;;
2388;SDS011;1205;47.984;7.668;2023-02-28T03:26:34;1.70;;;1.60;;
2388;SDS011;1205;47.984;7.668;2023-02-28T03:29:15;3.33;;;2.30;;
2388;SDS011;1205;47.984;7.668;2023-02-28T03:32:05;2.10;;;2.00;;
2388;SDS011;1205;47.984;7.668;2023-02-28T03:34:39;1.50;;;1.50;;
2388;SDS011;1205;47.984;7.668;2023-02-28T03:37:18;1.73;;;1.63;;
2388;SDS011;1205;47.984;7.668;2023-02-28T03:39:49;2.40;;;1.60;;
2388;SDS011;1205;47.984;7.668;2023-02-28T03:42:21;1.67;;;1.67;;
2388;SDS011;1205;47.984;7.668;2023-02-28T03:45:02;2.90;;;1.97;;
2388;SDS011;1205;47.984;7.668;2023-02-28T03:47:37;2.70;;;1.80;;
2388;SDS011;1205;47.984;7.668;2023-02-28T03:55:51;1.63;;;1.53;;
2388;SDS011;1205;47.984;7.668;2023-02-28T03:58:33;1.90;;;1.77;;
2388;SDS011;1205;47.984;7.668;2023-02-28T04:01:05;2.70;;;2.23;;
2388;SDS011;1205;47.984;7.668;2023-02-28T04:03:37;1.97;;;1.87;;
2388;SDS011;1205;47.984;7.668;2023-02-28T04:06:04;3.60;;;3.30;;
2388;SDS011;1205;47.984;7.668;2023-02-28T04:08:32;3.13;;;2.10;;
2388;SDS011;1205;47.984;7.668;2023-02-28T04:11:00;2.57;;;1.90;;
2388;SDS011;1205;47.984;7.668;2023-02-28T04:13:36;2.37;;;1.97;;
2388;SDS011;1205;47.984;7.668;2023-02-28T04:16:02;2.60;;;2.17;;
2388;SDS011;1205;47.984;7.668;2023-02-28T04:18:36;2.10;;;2.00;;
2388;SDS011;1205;47.984;7.668;2023-02-28T04:21:03;2.50;;;2.10;;
2388;SDS011;1205;47.984;7.668;2023-02-28T04:23:29;1.77;;;1.67;;
2388;SDS011;1205;47.984;7.668;2023-02-28T04:25:55;2.83;;;2.50;;
2388;SDS011;1205;47.984;7.668;2023-02-28T04:28:21;5.63;;;2.40;;
2388;SDS011;1205;47.984;7.668;2023-02-28T04:30:46;1.80;;;1.70;;
2388;SDS011;1205;47.984;7.668;2023-02-28T04:33:12;2.13;;;2.03;;
2388;SDS011;1205;47.984;7.668;2023-02-28T04:35:38;1.73;;;1.73;;
2388;SDS011;1205;47.984;7.668;2023-02-28T04:38:03;2.10;;;1.90;;
2388;SDS011;1205;47.984;7.668;2023-02-28T04:40:29;1.70;;;1.60;;
2388;SDS011;1205;47.984;7.668;2023-02-28T04:42:54;3.23;;;2.40;;
2388;SDS011;1205;47.984;7.668;2023-02-28T04:45:20;2.07;;;1.97;;
2388;SDS011;1205;47.984;7.668;2023-02-28T04:47:45;2.60;;;2.17;;
2388;SDS011;1205;47.984;7.668;2023-02-28T04:50:11;3.00;;;2.30;;
2388;SDS011;1205;47.984;7.668;2023-02-28T04:52:36;3.93;;;2.33;;
2388;SDS011;1205;47.984;7.668;2023-02-28T04:55:02;9.40;;;2.17;;
2388;SDS011;1205;47.984;7.668;2023-02-28T04:57:28;2.43;;;2.33;;
2388;SDS011;1205;47.984;7.668;2023-02-28T04:59:54;2.40;;;2.20;;
2388;SDS011;1205;47.984;7.668;2023-02-28T05:02:20;3.43;;;2.00;;
2388;SDS011;1205;47.984;7.668;2023-02-28T05:04:46;2.63;;;2.30;;
2388;SDS011;1205;47.984;7.668;2023-02-28T05:07:11;2.23;;;2.13;;
2388;SDS011;1205;47.984;7.668;2023-02-28T05:09:37;2.77;;;2.10;;
2388;SDS011;1205;47.984;7.668;2023-02-28T05:12:02;2.97;;;2.17;;
2388;SDS011;1205;47.984;7.668;2023-02-28T05:14:28;3.17;;;2.30;;
2388;SDS011;1205;47.984;7.668;2023-02-28T05:16:54;2.87;;;2.43;;
2388;SDS011;1205;47.984;7.668;2023-02-28T05:19:19;2.90;;;2.30;;
2388;SDS011;1205;47.984;7.668;2023-02-28T05:21:50;2.33;;;2.23;;
2388;SDS011;1205;47.984;7.668;2023-02-28T05:24:17;2.40;;;2.20;;
2388;SDS011;1205;47.984;7.668;2023-02-28T05:26:48;4.37;;;2.40;;
2388;SDS011;1205;47.984;7.668;2023-02-28T05:29:16;2.30;;;2.20;;
2388;SDS011;1205;47.984;7.668;2023-02-28T05:31:42;4.00;;;2.40;;
2388;SDS011;1205;47.984;7.668;2023-02-28T05:34:08;2.30;;;2.20;;
2388;SDS011;1205;47.984;7.668;2023-02-28T05:36:36;3.50;;;2.33;;
2388;SDS011;1205;47.984;7.668;2023-02-28T05:39:02;3.00;;;2.70;;
2388;SDS011;1205;47.984;7.668;2023-02-28T05:41:28;2.80;;;2.60;;
2388;SDS011;1205;47.984;7.668;2023-02-28T05:43:54;2.30;;;2.13;;
2388;SDS011;1205;47.984;7.668;2023-02-28T05:46:19;2.93;;;2.73;;
2388;SDS011;1205;47.984;7.668;2023-02-28T05:48:46;2.60;;;2.40;;
2388;SDS011;1205;47.984;7.668;2023-02-28T05:51:12;4.83;;;2.53;;
2388;SDS011;1205;47.984;7.668;2023-02-28T05:53:38;4.37;;;2.50;;
2388;SDS011;1205;47.984;7.668;2023-02-28T05:56:04;3.17;;;2.87;;
2388;SDS011;1205;47.984;7.668;2023-02-28T05:58:29;4.53;;;2.77;;
2388;SDS011;1205;47.984;7.668;2023-02-28T06:00:59;6.10;;;2.40;;
2388;SDS011;1205;47.984;7.668;2023-02-28T06:03:26;10.50;;;6.23;;
2388;SDS011;1205;47.984;7.668;2023-02-28T06:05:52;2.40;;;2.30;;
2388;SDS011;1205;47.984;7.668;2023-02-28T06:08:18;4.60;;;2.80;;
2388;SDS011;1205;47.984;7.668;2023-02-28T06:10:44;5.43;;;3.63;;
2388;SDS011;1205;47.984;7.668;2023-02-28T06:13:10;3.40;;;3.10;;
2388;SDS011;1205;47.984;7.668;2023-02-28T06:15:37;3.03;;;2.83;;
2388;SDS011;1205;47.984;7.668;2023-02-28T06:18:03;3.33;;;3.13;;
2388;SDS011;1205;47.984;7.668;2023-02-28T06:20:29;4.93;;;3.13;;
2388;SDS011;1205;47.984;7.668;2023-02-28T06:22:55;8.53;;;4.83;;
2388;SDS011;1205;47.984;7.668;2023-02-28T06:25:23;10.67;;;6.40;;
2388;SDS011;1205;47.984;7.668;2023-02-28T06:27:50;5.27;;;4.63;;
2388;SDS011;1205;47.984;7.668;2023-02-28T06:30:15;4.20;;;3.80;;
2388;SDS011;1205;47.984;7.668;2023-02-28T06:32:41;9.23;;;3.77;;
2388;SDS011;1205;47.984;7.668;2023-02-28T06:35:07;5.27;;;4.77;;
2388;SDS011;1205;47.984;7.668;2023-02-28T06:37:32;4.13;;;3.77;;
2388;SDS011;1205;47.984;7.668;2023-02-28T06:39:58;5.83;;;3.93;;
2388;SDS011;1205;47.984;7.668;2023-02-28T06:42:24;5.40;;;4.57;;
2388;SDS011;1205;47.984;7.668;2023-02-28T06:44:56;7.40;;;5.20;;
2388;SDS011;1205;47.984;7.668;2023-02-28T06:47:22;8.30;;;5.90;;
2388;SDS011;1205;47.984;7.668;2023-02-28T06:49:48;4.93;;;4.03;;
2388;SDS011;1205;47.984;7.668;2023-02-28T06:52:14;4.07;;;3.77;;
2388;SDS011;1205;47.984;7.668;2023-02-28T06:54:40;3.53;;;3.23;;
2388;SDS011;1205;47.984;7.668;2023-02-28T06:57:06;5.77;;;5.23;;
2388;SDS011;1205;47.984;7.668;2023-02-28T06:59:31;5.37;;;4.80;;
2388;SDS011;1205;47.984;7.668;2023-02-28T07:01:57;3.80;;;3.60;;
2388;SDS011;1205;47.984;7.668;2023-02-28T07:04:23;9.80;;;6.23;;
2388;SDS011;1205;47.984;7.668;2023-02-28T07:06:48;4.67;;;4.27;;
2388;SDS011;1205;47.984;7.668;2023-02-28T07:09:14;4.00;;;3.50;;
2388;SDS011;1205;47.984;7.668;2023-02-28T07:11:40;4.10;;;3.70;;
2388;SDS011;1205;47.984;7.668;2023-02-28T07:14:07;4.47;;;3.60;;
2388;SDS011;1205;47.984;7.668;2023-02-28T07:16:32;7.03;;;3.57;;
2388;SDS011;1205;47.984;7.668;2023-02-28T07:18:58;4.27;;;3.87;;
2388;SDS011;1205;47.984;7.668;2023-02-28T07:21:24;16.33;;;3.83;;
2388;SDS011;1205;47.984;7.668;2023-02-28T07:23:50;4.10;;;3.40;;
2388;SDS011;1205;47.984;7.668;2023-02-28T07:26:16;3.63;;;3.30;;
2388;SDS011;1205;47.984;7.668;2023-02-28T07:28:44;7.30;;;5.57;;
2388;SDS011;1205;47.984;7.668;2023-02-28T07:31:11;8.07;;;3.53;;
2388;SDS011;1205;47.984;7.668;2023-02-28T07:33:38;4.50;;;3.90;;
2388;SDS011;1205;47.984;7.668;2023-02-28T07:36:08;3.90;;;3.60;;
2388;SDS011;1205;47.984;7.668;2023-02-28T07:38:39;4.80;;;3.60;;
2388;SDS011;1205;47.984;7.668;2023-02-28T07:41:09;3.77;;;3.47;;
2388;SDS011;1205;47.984;7.668;2023-02-28T07:43:35;4.40;;;4.00;;
2388;SDS011;1205;47.984;7.668;2023-02-28T07:46:02;66.87;;;20.60;;
2388;SDS011;1205;47.984;7.668;2023-02-28T07:48:32;13.63;;;7.23;;
2388;SDS011;1205;47.984;7.668;2023-02-28T07:50:58;9.23;;;6.30;;
2388;SDS011;1205;47.984;7.668;2023-02-28T07:53:25;12.53;;;9.00;;
2388;SDS011;1205;47.984;7.668;2023-02-28T07:55:59;9.40;;;6.37;;
2388;SDS011;1205;47.984;7.668;2023-02-28T07:58:25;7.57;;;6.07;;
2388;SDS011;1205;47.984;7.668;2023-02-28T08:00:52;11.30;;;8.63;;
2388;SDS011;1205;47.984;7.668;2023-02-28T08:03:18;7.07;;;5.77;;
2388;SDS011;1205;47.984;7.668;2023-02-28T08:05:45;4.73;;;4.30;;
2388;SDS011;1205;47.984;7.668;2023-02-28T08:08:11;8.23;;;6.17;;
2388;SDS011;1205;47.984;7.668;2023-02-28T08:10:37;8.17;;;6.37;;
2388;SDS011;1205;47.984;7.668;2023-02-28T08:13:02;6.70;;;5.73;;
2388;SDS011;1205;47.984;7.668;2023-02-28T08:15:28;11.80;;;7.30;;
2388;SDS011;1205;47.984;7.668;2023-02-28T08:17:53;6.90;;;5.73;;
2388;SDS011;1205;47.984;7.668;2023-02-28T08:20:21;10.30;;;6.87;;
2388;SDS011;1205;47.984;7.668;2023-02-28T08:22:47;10.37;;;7.83;;
2388;SDS011;1205;47.984;7.668;2023-02-28T08:25:13;12.17;;;7.67;;
2388;SDS011;1205;47.984;7.668;2023-02-28T08:27:38;8.70;;;6.70;;
2388;SDS011;1205;47.984;7.668;2023-02-28T08:30:04;6.33;;;5.70;;
2388;SDS011;1205;47.984;7.668;2023-02-28T08:32:31;7.20;;;5.67;;
2388;SDS011;1205;47.984;7.668;2023-02-28T08:34:58;6.53;;;4.87;;
2388;SDS011;1205;47.984;7.668;2023-02-28T08:37:23;5.73;;;5.00;;
2388;SDS011;1205;47.984;7.668;2023-02-28T08:39:50;7.47;;;5.73;;
2388;SDS011;1205;47.984;7.668;2023-02-28T08:42:15;6.20;;;4.63;;
2388;SDS011;1205;47.984;7.668;2023-02-28T08:44:41;7.33;;;4.47;;
2388;SDS011;1205;47.984;7.668;2023-02-28T08:47:06;8.50;;;6.40;;
2388;SDS011;1205;47.984;7.668;2023-02-28T08:49:32;8.17;;;6.10;;
2388;SDS011;1205;47.984;7.668;2023-02-28T08:51:58;7.63;;;6.00;;
2388;SDS011;1205;47.984;7.668;2023-02-28T08:54:23;7.00;;;5.23;;
2388;SDS011;1205;47.984;7.668;2023-02-28T08:56:49;7.70;;;6.07;;
2388;SDS011;1205;47.984;7.668;2023-02-28T08:59:15;9.57;;;6.80;;
2388;SDS011;1205;47.984;7.668;2023-02-28T09:01:41;11.33;;;7.70;;
2388;SDS011;1205;47.984;7.668;2023-02-28T09:04:06;12.13;;;5.40;;
2388;SDS011;1205;47.984;7.668;2023-02-28T09:06:33;8.20;;;5.37;;
2388;SDS011;1205;47.984;7.668;2023-02-28T09:08:59;8.73;;;5.60;;
2388;SDS011;1205;47.984;7.668;2023-02-28T09:11:26;5.67;;;5.10;;
2388;SDS011;1205;47.984;7.668;2023-02-28T09:13:53;6.13;;;5.40;;
2388;SDS011;1205;47.984;7.668;2023-02-28T09:16:20;6.67;;;5.40;;
2388;SDS011;1205;47.984;7.668;2023-02-28T09:18:46;7.87;;;5.87;;
2388;SDS011;1205;47.984;7.668;2023-02-28T09:21:13;4.80;;;4.30;;
2388;SDS011;1205;47.984;7.668;2023-02-28T09:23:41;8.57;;;5.70;;
2388;SDS011;1205;47.984;7.668;2023-02-28T09:26:11;10.57;;;6.97;;
2388;SDS011;1205;47.984;7.668;2023-02-28T09:28:39;9.53;;;5.53;;
2388;SDS011;1205;47.984;7.668;2023-02-28T09:31:04;5.20;;;4.70;;
2388;SDS011;1205;47.984;7.668;2023-02-28T09:33:30;9.70;;;4.97;;
2388;SDS011;1205;47.984;7.668;2023-02-28T09:35:59;6.53;;;5.00;;
2388;SDS011;1205;47.984;7.668;2023-02-28T09:38:26;6.33;;;5.60;;
2388;SDS011;1205;47.984;7.668;2023-02-28T09:40:53;5.70;;;5.17;;
2388;SDS011;1205;47.984;7.668;2023-02-28T09:43:25;5.37;;;4.63;;
2388;SDS011;1205;47.984;7.668;2023-02-28T09:45:59;6.27;;;5.13;;
2388;SDS011;1205;47.984;7.668;2023-02-28T09:48:35;11.50;;;6.80;;
2388;SDS011;1205;47.984;7.668;2023-02-28T09:53:41;7.67;;;5.67;;
2388;SDS011;1205;47.984;7.668;2023-02-28T09:56:08;10.00;;;6.67;;
2388;SDS011;1205;47.984;7.668;2023-02-28T09:58:47;7.13;;;5.17;;
2388;SDS011;1205;47.984;7.668;2023-02-28T10:01:28;5.20;;;4.80;;
2388;SDS011;1205;47.984;7.668;2023-02-28T10:04:08;6.50;;;4.93;;
2388;SDS011;1205;47.984;7.668;2023-02-28T10:06:44;6.80;;;5.60;;
2388;SDS011;1205;47.984;7.668;2023-02-28T10:09:21;4.80;;;4.40;;
2388;SDS011;1205;47.984;7.668;2023-02-28T10:11:56;6.93;;;5.03;;
2388;SDS011;1205;47.984;7.668;2023-02-28T10:14:28;7.13;;;5.13;;
2388;SDS011;1205;47.984;7.668;2023-02-28T10:16:56;26.00;;;14.90;;
2388;SDS011;1205;47.984;7.668;2023-02-28T10:22:01;15.90;;;9.30;;
2388;SDS011;1205;47.984;7.668;2023-02-28T10:24:35;8.47;;;5.57;;
2388;SDS011;1205;47.984;7.668;2023-02-28T10:27:13;5.93;;;5.33;;
2388;SDS011;1205;47.984;7.668;2023-02-28T10:29:44;6.60;;;5.90;;
2388;SDS011;1205;47.984;7.668;2023-02-28T10:32:13;8.53;;;6.23;;
2388;SDS011;1205;47.984;7.668;2023-02-28T10:34:44;8.70;;;6.77;;
2388;SDS011;1205;47.984;7.668;2023-02-28T10:37:32;10.87;;;6.53;;
2388;SDS011;1205;47.984;7.668;2023-02-28T10:40:03;8.17;;;6.10;;
2388;SDS011;1205;47.984;7.668;2023-02-28T10:42:30;6.40;;;5.67;;
2388;SDS011;1205;47.984;7.668;2023-02-28T10:47:34;6.63;;;4.87;;
2388;SDS011;1205;47.984;7.668;2023-02-28T10:50:03;6.27;;;5.47;;
2388;SDS011;1205;47.984;7.668;2023-02-28T10:52:41;4.90;;;4.40;;
2388;SDS011;1205;47.984;7.668;2023-02-28T10:55:23;7.87;;;5.50;;
2388;SDS011;1205;47.984;7.668;2023-02-28T10:57:51;6.60;;;5.90;;
2388;SDS011;1205;47.984;7.668;2023-02-28T11:00:21;6.70;;;5.10;;
2388;SDS011;1205;47.984;7.668;2023-02-28T11:02:50;5.37;;;4.87;;
2388;SDS011;1205;47.984;7.668;2023-02-28T11:07:55;6.33;;;4.70;;
2388;SDS011;1205;47.984;7.668;2023-02-28T11:10:24;8.03;;;5.20;;
2388;SDS011;1205;47.984;7.668;2023-02-28T11:12:54;7.97;;;4.77;;
2388;SDS011;1205;47.984;7.668;2023-02-28T11:15:23;6.00;;;5.33;;
2388;SDS011;1205;47.984;7.668;2023-02-28T11:20:32;6.37;;;4.77;;
2388;SDS011;1205;47.984;7.668;2023-02-28T11:22:59;4.63;;;4.23;;
2388;SDS011;1205;47.984;7.668;2023-02-28T11:25:32;9.27;;;4.73;;
2388;SDS011;1205;47.984;7.668;2023-02-28T11:28:04;4.73;;;4.37;;
2388;SDS011;1205;47.984;7.668;2023-02-28T11:30:35;5.60;;;5.10;;
2388;SDS011;1205;47.984;7.668;2023-02-28T11:33:26;6.37;;;5.43;;
2388;SDS011;1205;47.984;7.668;2023-02-28T11:35:55;5.87;;;5.27;;
2388;SDS011;1205;47.984;7.668;2023-02-28T11:38:25;6.60;;;5.57;;
2388;SDS011;1205;47.984;7.668;2023-02-28T11:45:53;8.67;;;6.30;;
2388;SDS011;1205;47.984;7.668;2023-02-28T11:51:08;5.33;;;4.80;;
2388;SDS011;1205;47.984;7.668;2023-02-28T11:56:29;7.13;;;5.40;;
2388;SDS011;1205;47.984;7.668;2023-02-28T12:10:27;7.80;;;5.90;;
2388;SDS011;1205;47.984;7.668;2023-02-28T12:26:51;12.30;;;7.33;;
2388;SDS011;1205;47.984;7.668;2023-02-28T12:29:29;7.70;;;5.60;;
2388;SDS011;1205;47.984;7.668;2023-02-28T12:32:20;6.70;;;5.40;;
2388;SDS011;1205;47.984;7.668;2023-02-28T12:34:52;8.80;;;6.30;;
2388;SDS011;1205;47.984;7.668;2023-02-28T12:37:28;8.97;;;6.00;;
2388;SDS011;1205;47.984;7.668;2023-02-28T12:39:58;9.00;;;6.67;;
2388;SDS011;1205;47.984;7.668;2023-02-28T12:42:31;9.33;;;6.27;;
2388;SDS011;1205;47.984;7.668;2023-02-28T12:45:05;8.37;;;5.80;;
2388;SDS011;1205;47.984;7.668;2023-02-28T12:47:38;9.27;;;5.27;;
2388;SDS011;1205;47.984;7.668;2023-02-28T12:50:09;7.17;;;5.73;;
2388;SDS011;1205;47.984;7.668;2023-02-28T13:09:09;9.67;;;6.40;;
2388;SDS011;1205;47.984;7.668;2023-02-28T13:11:47;7.77;;;6.77;;
2388;SDS011;1205;47.984;7.668;2023-02-28T13:14:37;8.77;;;6.30;;
2388;SDS011;1205;47.984;7.668;2023-02-28T13:19:36;10.07;;;6.30;;
2388;SDS011;1205;47.984;7.668;2023-02-28T13:22:18;10.33;;;7.60;;
2388;SDS011;1205;47.984;7.668;2023-02-28T13:24:50;7.40;;;6.07;;
2388;SDS011;1205;47.984;7.668;2023-02-28T13:27:35;8.20;;;6.20;;
2388;SDS011;1205;47.984;7.668;2023-02-28T13:36:01;6.70;;;6.03;;
2388;SDS011;1205;47.984;7.668;2023-02-28T13:38:34;11.20;;;6.67;;
2388;SDS011;1205;47.984;7.668;2023-02-28T13:44:08;7.27;;;6.53;;
2388;SDS011;1205;47.984;7.668;2023-02-28T13:47:20;10.90;;;6.83;;
2388;SDS011;1205;47.984;7.668;2023-02-28T13:52:06;7.20;;;6.00;;
2388;SDS011;1205;47.984;7.668;2023-02-28T14:02:44;12.33;;;6.60;;
2388;SDS011;1205;47.984;7.668;2023-02-28T14:05:20;8.50;;;6.43;;
2388;SDS011;1205;47.984;7.668;2023-02-28T14:07:51;9.17;;;5.93;;
2388;SDS011;1205;47.984;7.668;2023-02-28T14:13:13;7.70;;;6.23;;
2388;SDS011;1205;47.984;7.668;2023-02-28T14:15:59;10.07;;;6.60;;
2388;SDS011;1205;47.984;7.668;2023-02-28T14:18:41;11.60;;;6.47;;
2388;SDS011;1205;47.984;7.668;2023-02-28T14:21:24;8.60;;;6.93;;
2388;SDS011;1205;47.984;7.668;2023-02-28T14:29:28;12.40;;;7.03;;
2388;SDS011;1205;47.984;7.668;2023-02-28T14:32:15;14.03;;;8.60;;
2388;SDS011;1205;47.984;7.668;2023-02-28T14:38:05;8.80;;;6.80;;
2388;SDS011;1205;47.984;7.668;2023-02-28T14:40:38;10.10;;;6.23;;
2388;SDS011;1205;47.984;7.668;2023-02-28T14:43:05;9.77;;;6.70;;
2388;SDS011;1205;47.984;7.668;2023-02-28T14:45:43;8.27;;;6.80;;
2388;SDS011;1205;47.984;7.668;2023-02-28T14:48:15;18.47;;;7.00;;
2388;SDS011;1205;47.984;7.668;2023-02-28T14:50:42;8.23;;;6.60;;
2388;SDS011;1205;47.984;7.668;2023-02-28T14:53:18;7.77;;;6.60;;
2388;SDS011;1205;47.984;7.668;2023-02-28T14:55:46;11.80;;;6.90;;
2388;SDS011;1205;47.984;7.668;2023-02-28T14:58:23;8.63;;;6.20;;
2388;SDS011;1205;47.984;7.668;2023-02-28T15:00:53;7.03;;;6.33;;
2388;SDS011;1205;47.984;7.668;2023-02-28T15:03:21;10.67;;;7.57;;
2388;SDS011;1205;47.984;7.668;2023-02-28T15:05:59;10.80;;;7.77;;
2388;SDS011;1205;47.984;7.668;2023-02-28T15:08:27;9.40;;;7.37;;
2388;SDS011;1205;47.984;7.668;2023-02-28T15:11:07;18.57;;;7.20;;
2388;SDS011;1205;47.984;7.668;2023-02-28T15:13:42;8.80;;;6.57;;
2388;SDS011;1205;47.984;7.668;2023-02-28T15:16:25;10.03;;;7.17;;
2388;SDS011;1205;47.984;7.668;2023-02-28T15:18:59;11.60;;;6.53;;
2388;SDS011;1205;47.984;7.668;2023-02-28T15:21:28;8.30;;;6.80;;
2388;SDS011;1205;47.984;7.668;2023-02-28T15:24:03;9.27;;;7.00;;
2388;SDS011;1205;47.984;7.668;2023-02-28T15:26:30;7.63;;;6.50;;
2388;SDS011;1205;47.984;7.668;2023-02-28T15:29:00;7.97;;;6.93;;
2388;SDS011;1205;47.984;7.668;2023-02-28T15:31:31;8.10;;;6.90;;
2388;SDS011;1205;47.984;7.668;2023-02-28T15:34:02;7.33;;;6.20;;
2388;SDS011;1205;47.984;7.668;2023-02-28T15:36:30;14.77;;;7.00;;
2388;SDS011;1205;47.984;7.668;2023-02-28T15:38:58;8.47;;;6.93;;
2388;SDS011;1205;47.984;7.668;2023-02-28T15:41:29;9.00;;;6.30;;
2388;SDS011;1205;47.984;7.668;2023-02-28T15:49:29;8.20;;;6.50;;
2388;SDS011;1205;47.984;7.668;2023-02-28T15:52:13;10.57;;;6.80;;
2388;SDS011;1205;47.984;7.668;2023-02-28T15:55:35;10.30;;;7.10;;
2388;SDS011;1205;47.984;7.668;2023-02-28T15:57:56;10.70;;;7.87;;
2388;SDS011;1205;47.984;7.668;2023-02-28T16:00:27;7.63;;;6.73;;
2388;SDS011;1205;47.984;7.668;2023-02-28T16:02:54;10.57;;;7.73;;
2388;SDS011;1205;47.984;7.668;2023-02-28T16:05:25;9.63;;;7.00;;
2388;SDS011;1205;47.984;7.668;2023-02-28T16:08:00;10.13;;;6.73;;
2388;SDS011;1205;47.984;7.668;2023-02-28T16:10:36;9.27;;;7.00;;
2388;SDS011;1205;47.984;7.668;2023-02-28T16:13:02;11.13;;;6.80;;
2388;SDS011;1205;47.984;7.668;2023-02-28T16:15:28;7.70;;;6.60;;
2388;SDS011;1205;47.984;7.668;2023-02-28T16:17:57;11.27;;;7.00;;
2388;SDS011;1205;47.984;7.668;2023-02-28T16:20:27;11.50;;;7.80;;
2388;SDS011;1205;47.984;7.668;2023-02-28T16:22:54;12.10;;;7.97;;
2388;SDS011;1205;47.984;7.668;2023-02-28T16:25:26;11.30;;;8.97;;
2388;SDS011;1205;47.984;7.668;2023-02-28T16:27:58;12.03;;;8.00;;
2388;SDS011;1205;47.984;7.668;2023-02-28T16:30:26;12.50;;;8.47;;
2388;SDS011;1205;47.984;7.668;2023-02-28T16:32:54;24.10;;;12.30;;
2388;SDS011;1205;47.984;7.668;2023-02-28T16:35:21;22.13;;;12.20;;
2388;SDS011;1205;47.984;7.668;2023-02-28T16:37:47;10.93;;;8.70;;
2388;SDS011;1205;47.984;7.668;2023-02-28T16:40:17;9.27;;;7.83;;
2388;SDS011;1205;47.984;7.668;2023-02-28T16:42:46;25.47;;;14.27;;
2388;SDS011;1205;47.984;7.668;2023-02-28T16:45:21;24.70;;;14.60;;
2388;SDS011;1205;47.984;7.668;2023-02-28T16:47:48;15.03;;;10.70;;
2388;SDS011;1205;47.984;7.668;2023-02-28T16:50:15;15.33;;;11.20;;
2388;SDS011;1205;47.984;7.668;2023-02-28T16:52:43;14.10;;;10.07;;
2388;SDS011;1205;47.984;7.668;2023-02-28T16:55:08;15.67;;;10.47;;
2388;SDS011;1205;47.984;7.668;2023-02-28T16:57:34;12.27;;;8.97;;
2388;SDS011;1205;47.984;7.668;2023-02-28T17:00:00;11.40;;;8.57;;
2388;SDS011;1205;47.984;7.668;2023-02-28T17:02:26;14.10;;;8.80;;
2388;SDS011;1205;47.984;7.668;2023-02-28T17:04:52;11.13;;;8.47;;
2388;SDS011;1205;47.984;7.668;2023-02-28T17:07:17;13.97;;;9.27;;
2388;SDS011;1205;47.984;7.668;2023-02-28T17:09:43;12.13;;;9.33;;
2388;SDS011;1205;47.984;7.668;2023-02-28T17:12:09;14.37;;;8.93;;
2388;SDS011;1205;47.984;7.668;2023-02-28T17:14:36;15.37;;;10.57;;
2388;SDS011;1205;47.984;7.668;2023-02-28T17:17:01;18.30;;;12.40;;
2388;SDS011;1205;47.984;7.668;2023-02-28T17:19:28;20.27;;;11.90;;
2388;SDS011;1205;47.984;7.668;2023-02-28T17:21:54;19.00;;;10.43;;
2388;SDS011;1205;47.984;7.668;2023-02-28T17:24:19;17.47;;;11.20;;
2388;SDS011;1205;47.984;7.668;2023-02-28T17:26:45;16.53;;;10.70;;
2388;SDS011;1205;47.984;7.668;2023-02-28T17:29:15;17.57;;;12.33;;
2388;SDS011;1205;47.984;7.668;2023-02-28T17:31:43;16.90;;;11.57;;
2388;SDS011;1205;47.984;7.668;2023-02-28T17:34:08;16.07;;;10.13;;
2388;SDS011;1205;47.984;7.668;2023-02-28T17:36:34;19.00;;;10.10;;
2388;SDS011;1205;47.984;7.668;2023-02-28T17:39:01;13.77;;;8.80;;
2388;SDS011;1205;47.984;7.668;2023-02-28T17:41:28;11.37;;;8.73;;
2388;SDS011;1205;47.984;7.668;2023-02-28T17:43:55;18.27;;;12.03;;
2388;SDS011;1205;47.984;7.668;2023-02-28T17:46:22;28.63;;;12.03;;
2388;SDS011;1205;47.984;7.668;2023-02-28T17:48:49;32.90;;;17.33;;
2388;SDS011;1205;47.984;7.668;2023-02-28T17:51:16;21.20;;;13.90;;